createdAt,value
2022-07-28T00:01:38.230Z,25.25
2022-07-28T00:03:40.006Z,25.18
2022-07-28T00:05:41.753Z,25.12
2022-07-28T00:07:43.863Z,24.94
2022-07-28T00:09:45.504Z,24.92
2022-07-28T00:11:54.384Z,24.92
2022-07-28T00:13:56.647Z,24.84
2022-07-28T00:15:58.396Z,24.71
2022-07-28T00:18:00.854Z,24.69
2022-07-28T00:20:02.693Z,24.65
2022-07-28T00:22:04.745Z,24.51
2022-07-28T00:24:06.777Z,24.31
2022-07-28T00:26:09.527Z,24.18
2022-07-28T00:28:11.143Z,23.67
2022-07-28T00:30:12.967Z,22.78
2022-07-28T00:32:15.042Z,22.19
2022-07-28T00:34:17.366Z,21.96
2022-07-28T00:36:19.200Z,21.81
2022-07-28T00:38:26.396Z,21.74
2022-07-28T00:40:47.013Z,21.64
2022-07-28T00:42:48.715Z,21.73
2022-07-28T00:44:50.393Z,21.69
2022-07-28T00:46:52.061Z,21.88
2022-07-28T00:48:55.019Z,22.22
2022-07-28T00:50:56.809Z,22.48
2022-07-28T00:52:58.816Z,22.69
2022-07-28T00:55:01.022Z,22.84
2022-07-28T00:57:02.924Z,22.91
2022-07-28T00:59:04.893Z,23.01
2022-07-28T01:01:11.517Z,23.13
2022-07-28T01:03:13.337Z,23.25
2022-07-28T01:05:15.970Z,23.35
2022-07-28T01:07:28.086Z,23.45
2022-07-28T01:09:29.718Z,23.51
2022-07-28T01:11:42.528Z,23.62
2022-07-28T01:14:08.943Z,23.68
2022-07-28T01:16:10.833Z,23.75
2022-07-28T01:18:21.238Z,23.79
2022-07-28T01:20:36.278Z,23.75
2022-07-28T01:22:41.613Z,23.76
2022-07-28T01:24:51.493Z,23.77
2022-07-28T01:27:11.453Z,23.76
2022-07-28T01:29:32.929Z,23.80
2022-07-28T01:31:59.149Z,23.86
2022-07-28T01:34:06.175Z,23.86
2022-07-28T01:36:14.811Z,23.86
2022-07-28T01:38:17.718Z,23.85
2022-07-28T01:40:23.240Z,23.81
2022-07-28T01:42:28.463Z,23.82
2022-07-28T01:44:30.208Z,23.82
2022-07-28T01:46:32.673Z,23.76
2022-07-28T01:48:35.116Z,23.73
2022-07-28T01:50:37.665Z,23.73
2022-07-28T01:52:41.339Z,23.63
2022-07-28T01:54:43.869Z,23.56
2022-07-28T01:56:46.580Z,23.47
2022-07-28T01:58:49.279Z,23.41
2022-07-28T02:00:51.621Z,23.38
2022-07-28T02:02:54.629Z,23.38
2022-07-28T02:04:57.513Z,23.27
2022-07-28T02:06:59.780Z,23.17
2022-07-28T02:09:04.000Z,23.16
2022-07-28T02:11:24.095Z,23.10
2022-07-28T02:13:25.867Z,22.94
2022-07-28T02:15:29.944Z,22.90
2022-07-28T02:17:32.266Z,22.95
2022-07-28T02:19:34.665Z,22.86
2022-07-28T02:21:36.927Z,22.80
2022-07-28T02:23:39.579Z,22.85
2022-07-28T02:25:41.899Z,22.85
2022-07-28T02:28:02.270Z,22.57
2022-07-28T02:30:16.625Z,21.82
2022-07-28T02:32:50.195Z,21.11
2022-07-28T02:34:52.556Z,21.07
2022-07-28T02:36:58.014Z,20.95
2022-07-28T02:39:08.132Z,21.12
2022-07-28T02:41:28.737Z,21.39
2022-07-28T02:43:49.842Z,21.70
2022-07-28T02:45:54.122Z,21.75
2022-07-28T02:48:06.067Z,21.91
2022-07-28T02:50:08.546Z,22.11
2022-07-28T02:52:11.519Z,22.26
2022-07-28T02:54:13.875Z,22.40
2022-07-28T02:56:17.731Z,22.42
2022-07-28T02:58:21.052Z,22.53
2022-07-28T03:00:22.902Z,22.56
2022-07-28T03:02:24.929Z,22.59
2022-07-28T03:04:45.908Z,22.64
2022-07-28T03:06:47.698Z,22.76
2022-07-28T03:08:53.062Z,22.85
2022-07-28T03:11:12.213Z,22.95
2022-07-28T03:13:14.630Z,23.08
2022-07-28T03:15:16.421Z,23.15
2022-07-28T03:17:19.301Z,23.17
2022-07-28T03:19:21.071Z,23.23
2022-07-28T03:21:22.758Z,23.24
2022-07-28T03:23:29.059Z,23.25
2022-07-28T03:25:44.899Z,23.22
2022-07-28T03:27:48.578Z,23.23
2022-07-28T03:30:04.109Z,23.23
2022-07-28T03:32:06.911Z,23.19
2022-07-28T03:34:11.823Z,23.14
2022-07-28T03:36:16.534Z,23.10
2022-07-28T03:38:23.617Z,23.04
2022-07-28T03:40:29.233Z,22.91
2022-07-28T03:42:31.001Z,22.88
2022-07-28T03:44:33.139Z,22.87
2022-07-28T03:46:35.949Z,22.90
2022-07-28T03:48:37.675Z,22.93
2022-07-28T03:50:39.419Z,22.88
2022-07-28T03:52:41.116Z,22.83
2022-07-28T03:54:43.060Z,22.85
2022-07-28T03:56:44.753Z,22.87
2022-07-28T03:58:46.401Z,22.92
2022-07-28T04:00:49.476Z,22.91
2022-07-28T04:02:51.592Z,22.90
2022-07-28T04:04:53.258Z,22.87
2022-07-28T04:06:55.122Z,22.87
2022-07-28T04:08:57.692Z,22.80
2022-07-28T04:10:59.368Z,22.38
2022-07-28T04:13:01.097Z,21.84
2022-07-28T04:15:02.799Z,21.26
2022-07-28T04:17:04.731Z,21.01
2022-07-28T04:19:06.481Z,20.87
2022-07-28T04:21:08.153Z,20.72
2022-07-28T04:23:10.138Z,20.60
2022-07-28T04:25:15.104Z,20.55
2022-07-28T04:27:16.855Z,20.54
2022-07-28T04:29:27.254Z,20.42
2022-07-28T04:31:29.404Z,20.42
2022-07-28T04:33:31.186Z,20.32
2022-07-28T04:35:34.811Z,20.13
2022-07-28T04:37:36.533Z,19.99
2022-07-28T04:39:38.341Z,19.98
2022-07-28T04:41:41.838Z,20.10
2022-07-28T04:43:43.534Z,20.22
2022-07-28T04:45:53.741Z,20.27
2022-07-28T04:47:56.329Z,20.44
2022-07-28T04:49:58.172Z,20.66
2022-07-28T04:51:59.861Z,20.91
2022-07-28T04:54:01.588Z,21.15
2022-07-28T04:56:03.488Z,21.37
2022-07-28T04:58:06.267Z,21.45
2022-07-28T05:00:13.701Z,21.48
2022-07-28T05:02:15.648Z,21.63
2022-07-28T05:04:18.978Z,21.75
2022-07-28T05:06:21.099Z,21.84
2022-07-28T05:08:26.103Z,21.90
2022-07-28T05:10:28.328Z,21.81
2022-07-28T05:12:30.204Z,21.64
2022-07-28T05:14:31.921Z,21.67
2022-07-28T05:16:33.617Z,21.64
2022-07-28T05:18:35.834Z,21.75
2022-07-28T05:20:37.508Z,21.82
2022-07-28T05:22:46.904Z,21.91
2022-07-28T05:24:48.567Z,22.05
2022-07-28T05:26:50.231Z,22.19
2022-07-28T05:28:51.818Z,22.35
2022-07-28T05:30:54.239Z,22.43
2022-07-28T05:32:59.285Z,22.39
2022-07-28T05:35:00.993Z,22.40
2022-07-28T05:37:02.996Z,22.49
2022-07-28T05:39:04.645Z,22.60
2022-07-28T05:41:06.710Z,22.65
2022-07-28T05:43:08.364Z,22.75
2022-07-28T05:45:15.661Z,22.84
2022-07-28T05:47:18.843Z,22.93
2022-07-28T05:49:22.200Z,23.01
2022-07-28T05:51:23.879Z,23.11
2022-07-28T05:53:25.658Z,23.20
2022-07-28T05:55:27.386Z,23.30
2022-07-28T05:57:29.022Z,23.43
2022-07-28T05:59:30.687Z,23.50
2022-07-28T06:01:37.193Z,23.58
2022-07-28T06:03:42.361Z,23.65
2022-07-28T06:06:00.504Z,23.75
2022-07-28T06:08:06.163Z,23.87
2022-07-28T06:10:08.562Z,23.94
2022-07-28T06:12:10.292Z,24.03
2022-07-28T06:14:12.362Z,24.08
2022-07-28T06:16:14.383Z,24.12
2022-07-28T06:18:16.497Z,24.10
2022-07-28T06:20:21.965Z,24.15
2022-07-28T06:22:23.627Z,24.22
2022-07-28T06:24:25.360Z,24.30
2022-07-28T06:26:27.042Z,24.39
2022-07-28T06:28:28.740Z,24.53
2022-07-28T06:30:31.406Z,24.59
2022-07-28T06:32:33.090Z,24.69
2022-07-28T06:34:34.752Z,24.67
2022-07-28T06:36:36.419Z,24.68
2022-07-28T06:38:38.113Z,24.72
2022-07-28T06:40:39.737Z,24.74
2022-07-28T06:42:42.321Z,24.84
2022-07-28T06:44:58.256Z,24.85
2022-07-28T06:47:00.853Z,24.47
2022-07-28T06:49:04.293Z,24.06
2022-07-28T06:51:06.296Z,24.05
2022-07-28T06:53:07.965Z,24.10
2022-07-28T06:55:09.960Z,24.07
2022-07-28T06:57:13.742Z,24.23
2022-07-28T06:59:16.062Z,24.13
2022-07-28T07:01:18.184Z,23.80
2022-07-28T07:03:19.826Z,23.90
2022-07-28T07:05:21.603Z,24.12
2022-07-28T07:07:23.667Z,24.36
2022-07-28T07:09:25.373Z,24.56
2022-07-28T07:11:27.335Z,24.36
2022-07-28T07:13:29.375Z,24.42
2022-07-28T07:15:31.072Z,24.51
2022-07-28T07:17:39.478Z,24.35
2022-07-28T07:19:41.166Z,24.07
2022-07-28T07:21:42.923Z,23.71
2022-07-28T07:23:44.626Z,23.49
2022-07-28T07:25:46.996Z,23.26
2022-07-28T07:27:48.811Z,23.34
2022-07-28T07:29:50.484Z,23.51
2022-07-28T07:31:52.824Z,23.79
2022-07-28T07:33:55.486Z,24.05
2022-07-28T07:35:57.144Z,24.33
2022-07-28T07:37:58.883Z,24.60
2022-07-28T07:40:01.577Z,24.49
2022-07-28T07:42:03.299Z,24.25
2022-07-28T07:44:05.270Z,24.32
2022-07-28T07:46:07.583Z,24.36
2022-07-28T07:48:09.374Z,24.50
2022-07-28T07:50:11.186Z,24.76
2022-07-28T07:52:13.484Z,25.07
2022-07-28T07:54:15.423Z,25.17
2022-07-28T07:56:18.502Z,25.26
2022-07-28T07:58:20.237Z,25.32
2022-07-28T08:00:29.218Z,25.42
2022-07-28T08:02:31.292Z,25.58
2022-07-28T08:04:37.655Z,25.68
2022-07-28T08:06:40.448Z,25.19
2022-07-28T08:08:46.472Z,24.89
2022-07-28T08:10:51.238Z,24.69
2022-07-28T08:12:52.909Z,24.56
2022-07-28T08:14:55.062Z,24.51
2022-07-28T08:16:58.586Z,24.69
2022-07-28T08:19:00.414Z,24.80
2022-07-28T08:21:02.168Z,24.95
2022-07-28T08:23:04.097Z,25.02
2022-07-28T08:25:06.362Z,24.96
2022-07-28T08:27:08.264Z,24.76
2022-07-28T08:29:10.212Z,24.71
2022-07-28T08:31:11.903Z,24.75
2022-07-28T08:33:13.671Z,24.81
2022-07-28T08:35:32.497Z,24.90
2022-07-28T08:37:35.694Z,24.86
2022-07-28T08:39:37.536Z,24.87
2022-07-28T08:41:45.741Z,24.92
2022-07-28T08:43:47.927Z,25.01
2022-07-28T08:45:57.803Z,25.12
2022-07-28T08:48:09.342Z,25.25
2022-07-28T08:50:15.185Z,25.35
2022-07-28T08:52:19.332Z,25.41
2022-07-28T08:54:25.267Z,25.43
2022-07-28T08:56:28.618Z,25.50
2022-07-28T08:58:31.869Z,25.52
2022-07-28T09:00:33.756Z,25.51
2022-07-28T09:02:41.058Z,25.54
2022-07-28T09:04:45.146Z,25.50
2022-07-28T09:06:47.475Z,25.49
2022-07-28T09:08:49.368Z,25.57
2022-07-28T09:10:51.580Z,25.70
2022-07-28T09:12:53.256Z,25.81
2022-07-28T09:14:54.889Z,25.76
2022-07-28T09:17:01.893Z,25.59
2022-07-28T09:19:03.616Z,25.50
2022-07-28T09:21:05.312Z,25.59
2022-07-28T09:23:42.792Z,25.58
2022-07-28T09:25:31.222Z,25.65
2022-07-28T09:27:45.157Z,25.67
2022-07-28T09:29:49.346Z,25.69
2022-07-28T09:31:56.932Z,25.66
2022-07-28T09:34:05.849Z,25.65
2022-07-28T09:36:15.264Z,25.71
2022-07-28T09:38:17.166Z,25.78
2022-07-28T09:40:22.392Z,25.84
2022-07-28T09:42:25.124Z,25.85
2022-07-28T09:44:27.779Z,25.88
2022-07-28T09:46:30.686Z,25.90
2022-07-28T09:48:32.789Z,25.95
2022-07-28T09:50:34.518Z,26.07
2022-07-28T09:52:38.606Z,26.13
2022-07-28T09:54:59.941Z,26.29
2022-07-28T09:57:01.715Z,26.48
2022-07-28T09:59:03.827Z,26.68
2022-07-28T10:01:12.384Z,26.89
2022-07-28T10:03:25.590Z,27.06
2022-07-28T10:05:39.816Z,27.15
2022-07-28T10:07:51.165Z,27.13
2022-07-28T10:09:57.991Z,27.05
2022-07-28T10:12:16.146Z,27.11
2022-07-28T10:14:21.531Z,27.25
2022-07-28T10:16:28.852Z,27.51
2022-07-28T10:18:30.627Z,27.38
2022-07-28T10:20:33.636Z,27.46
2022-07-28T10:22:42.881Z,27.67
2022-07-28T10:24:46.817Z,27.75
2022-07-28T10:26:49.400Z,27.54
2022-07-28T10:28:52.292Z,27.47
2022-07-28T10:30:55.625Z,27.39
2022-07-28T10:33:03.391Z,27.08
2022-07-28T10:35:08.255Z,26.94
2022-07-28T10:37:10.930Z,26.86
2022-07-28T10:39:14.303Z,26.89
2022-07-28T10:41:15.862Z,26.99
2022-07-28T10:43:17.562Z,27.15
2022-07-28T10:45:19.410Z,27.22
2022-07-28T10:47:21.720Z,27.40
2022-07-28T10:49:27.591Z,27.70
2022-07-28T10:51:34.497Z,28.04
2022-07-28T10:53:58.736Z,28.25
2022-07-28T10:56:03.895Z,28.29
2022-07-28T10:58:24.999Z,28.41
2022-07-28T11:00:27.552Z,28.33
2022-07-28T11:02:51.807Z,28.20
2022-07-28T11:04:55.779Z,28.13
2022-07-28T11:07:13.484Z,28.15
2022-07-28T11:09:17.977Z,28.05
2022-07-28T11:11:59.064Z,28.10
2022-07-28T11:14:43.533Z,28.30
2022-07-28T11:16:45.411Z,28.55
2022-07-28T11:19:04.615Z,28.74
2022-07-28T11:21:10.079Z,28.84
2022-07-28T11:23:31.358Z,28.98
2022-07-28T11:25:33.065Z,29.12
2022-07-28T11:27:40.852Z,29.25
2022-07-28T11:29:47.625Z,29.34
2022-07-28T11:31:49.934Z,29.31
2022-07-28T11:33:54.643Z,29.23
2022-07-28T11:35:57.703Z,29.23
2022-07-28T11:38:02.143Z,29.17
2022-07-28T11:40:42.937Z,29.15
2022-07-28T11:42:44.561Z,29.25
2022-07-28T11:44:48.447Z,29.29
2022-07-28T11:46:52.702Z,29.25
2022-07-28T11:49:14.959Z,29.26
2022-07-28T11:51:18.733Z,29.25
2022-07-28T11:53:23.935Z,29.20
2022-07-28T11:55:55.466Z,29.14
2022-07-28T11:57:53.502Z,29.04
2022-07-28T11:59:57.336Z,29.10
2022-07-28T12:01:59.006Z,29.15
2022-07-28T12:04:01.447Z,29.29
2022-07-28T12:06:03.128Z,29.41
2022-07-28T12:08:05.114Z,29.39
2022-07-28T12:10:51.804Z,29.68
2022-07-28T12:12:53.262Z,29.69
2022-07-28T12:14:56.391Z,29.65
2022-07-28T12:16:58.119Z,29.59
2022-07-28T12:19:01.799Z,29.51
2022-07-28T12:21:05.354Z,29.57
2022-07-28T12:23:08.050Z,29.65
2022-07-28T12:25:13.243Z,29.62
2022-07-28T12:27:16.613Z,29.57
2022-07-28T12:29:20.699Z,29.65
2022-07-28T12:31:27.398Z,29.80
2022-07-28T12:33:30.314Z,29.85
2022-07-28T12:35:31.991Z,29.85
2022-07-28T12:37:33.657Z,29.89
2022-07-28T12:39:39.353Z,29.92
2022-07-28T12:41:41.045Z,29.92
2022-07-28T12:43:50.280Z,29.85
2022-07-28T12:45:52.391Z,29.75
2022-07-28T12:47:54.283Z,29.80
2022-07-28T12:50:14.477Z,29.82
2022-07-28T12:52:18.146Z,29.82
2022-07-28T12:54:34.547Z,29.82
2022-07-28T12:56:52.130Z,29.84
2022-07-28T12:59:08.261Z,30.10
2022-07-28T13:01:12.410Z,30.10
2022-07-28T13:03:25.365Z,30.14
2022-07-28T13:05:53.599Z,30.31
2022-07-28T13:08:05.179Z,30.47
2022-07-28T13:10:11.436Z,30.49
2022-07-28T13:12:20.195Z,30.66
2022-07-28T13:14:44.495Z,30.70
2022-07-28T13:16:57.469Z,30.55
2022-07-28T13:19:03.912Z,30.33
2022-07-28T13:21:05.590Z,30.38
2022-07-28T13:23:07.247Z,30.43
2022-07-28T13:25:11.054Z,30.24
2022-07-28T13:27:12.706Z,30.29
2022-07-28T13:29:14.620Z,30.38
2022-07-28T13:31:16.328Z,30.42
2022-07-28T13:33:19.004Z,30.49
2022-07-28T13:35:23.060Z,30.59
2022-07-28T13:37:24.740Z,30.65
2022-07-28T13:39:26.439Z,30.57
2022-07-28T13:41:28.275Z,30.57
2022-07-28T13:43:50.196Z,30.66
2022-07-28T13:45:55.154Z,30.72
2022-07-28T13:47:59.968Z,30.75
2022-07-28T13:50:01.719Z,30.80
2022-07-28T13:52:07.203Z,30.92
2022-07-28T13:54:15.261Z,31.11
2022-07-28T13:56:17.165Z,31.17
2022-07-28T13:58:18.825Z,31.11
2022-07-28T14:00:24.917Z,30.97
2022-07-28T14:02:26.779Z,30.93
2022-07-28T14:04:28.538Z,30.75
2022-07-28T14:06:30.422Z,30.66
2022-07-28T14:08:32.807Z,30.54
2022-07-28T14:10:35.888Z,30.65
2022-07-28T14:12:37.798Z,30.53
2022-07-28T14:14:39.546Z,30.33
2022-07-28T14:16:49.748Z,29.98
2022-07-28T14:18:51.624Z,29.81
2022-07-28T14:20:53.266Z,29.61
2022-07-28T14:22:54.931Z,29.37
2022-07-28T14:24:56.581Z,29.33
2022-07-28T14:26:58.213Z,29.29
2022-07-28T14:29:00.111Z,29.06
2022-07-28T14:31:02.068Z,28.95
2022-07-28T14:33:06.375Z,29.02
2022-07-28T14:35:08.342Z,28.91
2022-07-28T14:37:09.948Z,28.69
2022-07-28T14:39:12.657Z,28.52
2022-07-28T14:41:15.093Z,28.41
2022-07-28T14:43:17.032Z,28.21
2022-07-28T14:45:18.849Z,28.13
2022-07-28T14:47:22.323Z,28.02
2022-07-28T14:49:25.029Z,27.98
2022-07-28T14:51:26.871Z,27.86
2022-07-28T14:53:28.498Z,27.77
2022-07-28T14:55:30.732Z,27.74
2022-07-28T14:57:52.166Z,27.75
2022-07-28T14:59:54.810Z,27.76
2022-07-28T15:01:56.658Z,27.75
2022-07-28T15:03:58.443Z,27.68
2022-07-28T15:06:01.757Z,27.67
2022-07-28T15:08:03.424Z,27.67
2022-07-28T15:10:06.162Z,27.72
2022-07-28T15:12:08.156Z,27.77
2022-07-28T15:14:09.840Z,27.80
2022-07-28T15:16:11.559Z,27.81
2022-07-28T15:18:13.375Z,27.79
2022-07-28T15:20:15.394Z,27.78
2022-07-28T15:22:17.036Z,27.81
2022-07-28T15:24:19.413Z,27.77
2022-07-28T15:26:21.165Z,27.77
2022-07-28T15:28:22.850Z,27.77
2022-07-28T15:30:24.619Z,27.75
2022-07-28T15:32:28.188Z,27.73
2022-07-28T15:34:30.479Z,27.73
2022-07-28T15:36:33.825Z,27.69
2022-07-28T15:38:35.431Z,27.68
2022-07-28T15:40:38.359Z,27.67
2022-07-28T15:42:40.086Z,27.67
2022-07-28T15:44:41.913Z,27.64
2022-07-28T15:46:44.031Z,27.66
2022-07-28T15:48:48.511Z,27.67
2022-07-28T15:50:50.250Z,27.65
2022-07-28T15:52:51.924Z,27.67
2022-07-28T15:54:53.594Z,27.68
2022-07-28T15:56:55.369Z,27.69
2022-07-28T15:58:57.983Z,27.71
2022-07-28T16:01:01.719Z,27.71
2022-07-28T16:03:04.107Z,27.73
2022-07-28T16:05:06.066Z,27.74
2022-07-28T16:07:19.681Z,27.74
2022-07-28T16:09:24.135Z,27.73
2022-07-28T16:11:25.879Z,27.73
2022-07-28T16:13:36.012Z,27.73
2022-07-28T16:15:39.362Z,27.72
2022-07-28T16:17:42.202Z,27.70
2022-07-28T16:19:49.641Z,27.69
2022-07-28T16:21:51.967Z,27.67
2022-07-28T16:23:53.588Z,27.68
2022-07-28T16:25:55.744Z,27.68
2022-07-28T16:27:57.898Z,27.70
2022-07-28T16:29:59.618Z,27.69
2022-07-28T16:32:03.686Z,27.63
2022-07-28T16:34:05.341Z,27.57
2022-07-28T16:36:07.065Z,27.56
2022-07-28T16:38:08.708Z,27.56
2022-07-28T16:40:11.000Z,27.60
2022-07-28T16:42:12.649Z,27.62
2022-07-28T16:44:16.122Z,27.63
2022-07-28T16:46:19.387Z,27.63
2022-07-28T16:48:21.088Z,27.61
2022-07-28T16:50:24.086Z,27.63
2022-07-28T16:52:27.446Z,27.62
2022-07-28T16:54:28.991Z,27.61
2022-07-28T16:56:30.641Z,27.61
2022-07-28T16:58:32.875Z,27.58
2022-07-28T17:00:34.562Z,27.60
2022-07-28T17:02:36.212Z,27.56
2022-07-28T17:04:37.930Z,27.52
2022-07-28T17:06:39.739Z,27.49
2022-07-28T17:08:41.401Z,27.43
2022-07-28T17:10:43.101Z,27.41
2022-07-28T17:12:44.751Z,27.36
2022-07-28T17:14:51.633Z,27.28
2022-07-28T17:16:53.282Z,27.22
2022-07-28T17:18:54.982Z,27.18
2022-07-28T17:20:56.658Z,27.13
2022-07-28T17:22:58.885Z,27.11
2022-07-28T17:25:00.563Z,27.12
2022-07-28T17:27:36.531Z,27.12
2022-07-28T17:29:23.918Z,27.09
2022-07-28T17:31:25.815Z,27.08
2022-07-28T17:33:27.912Z,27.03
2022-07-28T17:35:35.153Z,27.03
2022-07-28T17:37:37.325Z,27.00
2022-07-28T17:39:38.988Z,26.94
2022-07-28T17:41:40.638Z,26.83
2022-07-28T17:43:45.469Z,26.67
2022-07-28T17:45:47.808Z,26.53
2022-07-28T17:47:49.465Z,26.40
2022-07-28T17:49:51.504Z,26.30
2022-07-28T17:51:54.354Z,26.24
2022-07-28T17:53:55.998Z,26.06
2022-07-28T17:56:01.329Z,25.85
2022-07-28T17:58:18.675Z,25.76
2022-07-28T18:00:23.842Z,25.57
2022-07-28T18:02:25.696Z,25.49
2022-07-28T18:04:27.394Z,25.45
2022-07-28T18:06:34.108Z,25.44
2022-07-28T18:08:36.609Z,25.40
2022-07-28T18:10:38.961Z,25.24
2022-07-28T18:12:40.732Z,25.09
2022-07-28T18:14:42.362Z,24.96
2022-07-28T18:16:44.453Z,24.81
2022-07-28T18:18:46.113Z,24.70
2022-07-28T18:20:48.047Z,24.59
2022-07-28T18:22:50.600Z,24.45
2022-07-28T18:24:52.385Z,24.31
2022-07-28T18:26:54.804Z,24.19
2022-07-28T18:28:56.481Z,24.10
2022-07-28T18:30:58.195Z,24.05
2022-07-28T18:33:01.881Z,23.89
2022-07-28T18:35:03.557Z,23.85
2022-07-28T18:37:05.186Z,23.84
2022-07-28T18:39:06.905Z,23.77
2022-07-28T18:41:08.543Z,23.79
2022-07-28T18:43:13.066Z,23.81
2022-07-28T18:45:16.047Z,23.84
2022-07-28T18:47:17.672Z,23.88
2022-07-28T18:49:20.125Z,23.89
2022-07-28T18:51:22.019Z,24.00
2022-07-28T18:53:28.824Z,24.08
2022-07-28T18:55:30.614Z,24.03
2022-07-28T18:57:32.280Z,24.08
2022-07-28T18:59:33.919Z,24.07
2022-07-28T19:01:35.775Z,24.14
2022-07-28T19:03:37.489Z,24.22
2022-07-28T19:05:41.731Z,24.32
2022-07-28T19:07:45.796Z,24.40
2022-07-28T19:09:47.455Z,24.38
2022-07-28T19:11:49.104Z,24.28
2022-07-28T19:13:50.953Z,24.07
2022-07-28T19:15:52.694Z,23.83
2022-07-28T19:18:11.357Z,23.85
2022-07-28T19:20:13.751Z,23.80
2022-07-28T19:22:15.497Z,23.71
2022-07-28T19:24:18.083Z,23.70
2022-07-28T19:26:20.330Z,23.59
2022-07-28T19:28:22.385Z,23.54
2022-07-28T19:30:24.129Z,23.55
2022-07-28T19:32:25.850Z,23.59
2022-07-28T19:34:27.908Z,23.62
2022-07-28T19:36:29.846Z,23.66
2022-07-28T19:38:31.475Z,23.64
2022-07-28T19:40:33.223Z,23.59
2022-07-28T19:42:35.301Z,23.46
2022-07-28T19:44:38.167Z,23.44
2022-07-28T19:46:40.470Z,23.38
2022-07-28T19:48:42.233Z,23.38
2022-07-28T19:50:50.979Z,23.36
2022-07-28T19:52:52.889Z,23.22
2022-07-28T19:54:55.794Z,23.09
2022-07-28T19:56:57.483Z,23.07
2022-07-28T19:58:59.327Z,23.11
2022-07-28T20:01:01.443Z,23.15
2022-07-28T20:03:04.138Z,23.26
2022-07-28T20:05:25.843Z,23.37
2022-07-28T20:07:27.475Z,23.31
2022-07-28T20:09:29.156Z,23.37
2022-07-28T20:11:32.950Z,23.31
2022-07-28T20:13:34.889Z,23.19
2022-07-28T20:15:38.808Z,22.96
2022-07-28T20:17:41.482Z,22.85
2022-07-28T20:19:43.166Z,22.78
2022-07-28T20:21:44.805Z,22.74
2022-07-28T20:23:46.457Z,22.69
2022-07-28T20:25:48.200Z,22.60
2022-07-28T20:27:49.852Z,22.69
2022-07-28T20:29:51.470Z,22.74
2022-07-28T20:31:53.185Z,22.72
2022-07-28T20:33:55.848Z,22.74
2022-07-28T20:35:57.478Z,22.62
2022-07-28T20:37:59.216Z,22.68
2022-07-28T20:40:00.968Z,22.69
2022-07-28T20:42:04.365Z,22.73
2022-07-28T20:44:29.791Z,22.81
2022-07-28T20:46:27.887Z,22.82
2022-07-28T20:48:29.698Z,22.85
2022-07-28T20:50:31.354Z,22.87
2022-07-28T20:52:34.040Z,22.74
2022-07-28T20:54:35.826Z,22.68
2022-07-28T20:56:37.681Z,22.69
2022-07-28T20:58:39.499Z,22.70
2022-07-28T21:00:41.151Z,22.73
2022-07-28T21:02:42.948Z,22.76
2022-07-28T21:04:44.601Z,22.77
2022-07-28T21:06:50.126Z,22.81
2022-07-28T21:08:54.872Z,22.83
2022-07-28T21:11:00.496Z,22.82
2022-07-28T21:13:02.209Z,22.67
2022-07-28T21:15:08.172Z,22.67
2022-07-28T21:17:09.878Z,22.73
2022-07-28T21:19:11.598Z,22.80
2022-07-28T21:21:13.417Z,22.82
2022-07-28T21:23:15.107Z,22.76
2022-07-28T21:25:16.943Z,22.74
2022-07-28T21:27:19.251Z,22.75
2022-07-28T21:31:21.710Z,22.85
2022-07-28T21:33:23.521Z,22.84
2022-07-28T21:35:25.313Z,22.57
2022-07-28T21:37:26.962Z,22.45
2022-07-28T21:39:28.658Z,22.46
2022-07-28T21:41:36.521Z,22.51
2022-07-28T21:43:38.860Z,22.61
2022-07-28T21:45:40.583Z,22.73
2022-07-28T21:47:42.419Z,22.79
2022-07-28T21:49:44.200Z,22.83
2022-07-28T21:51:46.322Z,22.86
2022-07-28T21:53:48.968Z,22.89
2022-07-28T21:55:55.399Z,22.89
2022-07-28T21:57:57.057Z,22.89
2022-07-28T21:59:58.772Z,22.86
2022-07-28T22:02:00.613Z,22.80
2022-07-28T22:04:02.227Z,22.69
2022-07-28T22:06:04.662Z,22.50
2022-07-28T22:08:06.395Z,22.43
2022-07-28T22:10:08.374Z,22.35
2022-07-28T22:12:10.218Z,22.39
2022-07-28T22:14:12.380Z,22.45
2022-07-28T22:16:14.277Z,22.52
2022-07-28T22:18:20.922Z,22.53
2022-07-28T22:20:22.625Z,22.54
2022-07-28T22:22:24.254Z,22.52
2022-07-28T22:24:26.330Z,22.55
2022-07-28T22:26:28.007Z,22.60
2022-07-28T22:28:30.629Z,22.62
2022-07-28T22:30:32.908Z,22.64
2022-07-28T22:32:34.570Z,22.64
2022-07-28T22:34:36.353Z,22.62
2022-07-28T22:36:38.627Z,22.61
2022-07-28T22:38:40.326Z,22.51
2022-07-28T22:40:41.991Z,22.39
2022-07-28T22:42:44.595Z,22.30
2022-07-28T22:44:46.260Z,22.28
2022-07-28T22:46:48.016Z,22.27
2022-07-28T22:48:49.868Z,22.28
2022-07-28T22:50:51.661Z,22.31
2022-07-28T22:52:53.450Z,22.33
2022-07-28T22:57:15.340Z,22.37
2022-07-28T22:59:17.822Z,22.39
2022-07-28T23:01:19.823Z,22.37
2022-07-28T23:03:22.380Z,22.37
2022-07-28T23:05:24.195Z,22.38
2022-07-28T23:07:53.148Z,22.36
2022-07-28T23:09:47.635Z,22.38
2022-07-28T23:11:55.559Z,22.39
2022-07-28T23:13:57.678Z,22.40
2022-07-28T23:15:59.542Z,22.40
2022-07-28T23:18:01.316Z,22.42
2022-07-28T23:20:05.276Z,22.39
2022-07-28T23:22:06.992Z,22.37
2022-07-28T23:24:08.881Z,22.32
2022-07-28T23:26:10.649Z,22.26
2022-07-28T23:28:13.783Z,22.22
2022-07-28T23:30:15.584Z,22.11
2022-07-28T23:32:17.398Z,22.02
2022-07-28T23:34:19.366Z,21.67
2022-07-28T23:36:26.726Z,21.60
2022-07-28T23:38:29.292Z,21.50
2022-07-28T23:40:31.161Z,21.48
2022-07-28T23:42:33.051Z,21.46
2022-07-28T23:44:34.923Z,21.50
2022-07-28T23:46:36.684Z,21.58
2022-07-28T23:48:40.162Z,21.65
2022-07-28T23:50:41.952Z,21.72
2022-07-28T23:52:43.782Z,21.73
2022-07-28T23:54:45.559Z,21.76
2022-07-28T23:56:51.366Z,21.73
2022-07-28T23:58:53.148Z,21.77
